sensor_id;sensor_type;location;lat;lon;timestamp;temperature;humidity
4201;DHT22;2114;50.398;8.814;2023-04-03T00:03:22;5.60;99.90
4201;DHT22;2114;50.398;8.814;2023-04-03T00:08:23;5.60;99.90
4201;DHT22;2114;50.398;8.814;2023-04-03T00:13:24;5.60;99.90
4201;DHT22;2114;50.398;8.814;2023-04-03T00:18:25;5.60;99.90
4201;DHT22;2114;50.398;8.814;2023-04-03T00:23:26;5.60;99.90
4201;DHT22;2114;50.398;8.814;2023-04-03T00:28:26;5.60;99.90
4201;DHT22;2114;50.398;8.814;2023-04-03T00:33:27;5.60;99.90
4201;DHT22;2114;50.398;8.814;2023-04-03T00:38:28;5.60;99.90
4201;DHT22;2114;50.398;8.814;2023-04-03T00:43:29;5.60;99.90
4201;DHT22;2114;50.398;8.814;2023-04-03T00:48:42;5.60;99.90
4201;DHT22;2114;50.398;8.814;2023-04-03T00:53:47;5.60;99.90
4201;DHT22;2114;50.398;8.814;2023-04-03T00:59:10;5.50;99.90
4201;DHT22;2114;50.398;8.814;2023-04-03T01:04:37;5.60;99.90
4201;DHT22;2114;50.398;8.814;2023-04-03T01:09:39;5.60;99.90
4201;DHT22;2114;50.398;8.814;2023-04-03T01:14:39;5.60;99.90
4201;DHT22;2114;50.398;8.814;2023-04-03T01:19:44;5.60;99.90
4201;DHT22;2114;50.398;8.814;2023-04-03T01:24:47;5.50;99.90
4201;DHT22;2114;50.398;8.814;2023-04-03T01:29:48;5.50;99.90
4201;DHT22;2114;50.398;8.814;2023-04-03T01:34:48;5.40;99.90
4201;DHT22;2114;50.398;8.814;2023-04-03T01:39:49;5.40;99.90
4201;DHT22;2114;50.398;8.814;2023-04-03T01:44:50;5.40;99.90
4201;DHT22;2114;50.398;8.814;2023-04-03T01:49:50;5.40;99.90
4201;DHT22;2114;50.398;8.814;2023-04-03T01:54:51;5.40;99.90
4201;DHT22;2114;50.398;8.814;2023-04-03T01:59:51;5.40;99.90
4201;DHT22;2114;50.398;8.814;2023-04-03T02:04:52;5.40;99.90
4201;DHT22;2114;50.398;8.814;2023-04-03T02:09:52;5.30;99.90
4201;DHT22;2114;50.398;8.814;2023-04-03T02:14:53;5.30;99.90
4201;DHT22;2114;50.398;8.814;2023-04-03T02:19:53;5.30;99.90
4201;DHT22;2114;50.398;8.814;2023-04-03T02:24:54;5.30;99.90
4201;DHT22;2114;50.398;8.814;2023-04-03T02:29:55;5.30;99.90
4201;DHT22;2114;50.398;8.814;2023-04-03T02:34:55;5.20;99.90
4201;DHT22;2114;50.398;8.814;2023-04-03T02:39:56;5.20;99.90
4201;DHT22;2114;50.398;8.814;2023-04-03T02:44:56;5.20;99.90
4201;DHT22;2114;50.398;8.814;2023-04-03T02:49:57;5.10;99.90
4201;DHT22;2114;50.398;8.814;2023-04-03T02:54:58;5.10;99.90
4201;DHT22;2114;50.398;8.814;2023-04-03T02:59:58;5.00;99.90
4201;DHT22;2114;50.398;8.814;2023-04-03T03:04:59;4.90;99.90
4201;DHT22;2114;50.398;8.814;2023-04-03T03:10:00;4.90;99.90
4201;DHT22;2114;50.398;8.814;2023-04-03T03:15:00;4.80;99.90
4201;DHT22;2114;50.398;8.814;2023-04-03T03:20:01;4.80;99.90
4201;DHT22;2114;50.398;8.814;2023-04-03T03:25:02;4.70;99.90
4201;DHT22;2114;50.398;8.814;2023-04-03T03:30:04;4.60;99.90
4201;DHT22;2114;50.398;8.814;2023-04-03T03:35:06;4.50;99.90
4201;DHT22;2114;50.398;8.814;2023-04-03T03:40:07;4.40;99.90
4201;DHT22;2114;50.398;8.814;2023-04-03T03:45:08;4.20;99.90
4201;DHT22;2114;50.398;8.814;2023-04-03T03:50:10;4.10;99.90
4201;DHT22;2114;50.398;8.814;2023-04-03T03:55:10;4.00;99.90
4201;DHT22;2114;50.398;8.814;2023-04-03T04:00:11;4.00;99.90
4201;DHT22;2114;50.398;8.814;2023-04-03T04:05:12;3.90;99.90
4201;DHT22;2114;50.398;8.814;2023-04-03T04:10:13;3.90;99.90
4201;DHT22;2114;50.398;8.814;2023-04-03T04:15:14;3.80;99.90
4201;DHT22;2114;50.398;8.814;2023-04-03T04:20:15;3.70;99.90
4201;DHT22;2114;50.398;8.814;2023-04-03T04:25:15;3.60;99.90
4201;DHT22;2114;50.398;8.814;2023-04-03T04:30:16;3.60;99.90
4201;DHT22;2114;50.398;8.814;2023-04-03T04:35:17;3.50;99.90
4201;DHT22;2114;50.398;8.814;2023-04-03T04:40:17;3.40;99.90
4201;DHT22;2114;50.398;8.814;2023-04-03T04:45:18;3.30;99.90
4201;DHT22;2114;50.398;8.814;2023-04-03T04:50:20;3.30;99.90
4201;DHT22;2114;50.398;8.814;2023-04-03T04:55:21;3.20;99.90
4201;DHT22;2114;50.398;8.814;2023-04-03T05:00:21;3.20;99.90
4201;DHT22;2114;50.398;8.814;2023-04-03T05:05:22;3.10;99.90
4201;DHT22;2114;50.398;8.814;2023-04-03T05:10:23;3.10;99.90
4201;DHT22;2114;50.398;8.814;2023-04-03T05:15:24;3.00;99.90
4201;DHT22;2114;50.398;8.814;2023-04-03T05:20:25;2.80;99.90
4201;DHT22;2114;50.398;8.814;2023-04-03T05:25:26;2.70;99.90
4201;DHT22;2114;50.398;8.814;2023-04-03T05:30:26;2.60;99.90
4201;DHT22;2114;50.398;8.814;2023-04-03T05:35:27;2.60;99.90
4201;DHT22;2114;50.398;8.814;2023-04-03T05:40:27;2.60;99.90
4201;DHT22;2114;50.398;8.814;2023-04-03T05:45:28;2.60;99.90
4201;DHT22;2114;50.398;8.814;2023-04-03T05:50:28;2.70;99.90
4201;DHT22;2114;50.398;8.814;2023-04-03T05:55:29;2.60;99.90
4201;DHT22;2114;50.398;8.814;2023-04-03T06:00:30;2.60;99.90
4201;DHT22;2114;50.398;8.814;2023-04-03T06:05:30;2.70;99.90
4201;DHT22;2114;50.398;8.814;2023-04-03T06:10:31;2.70;99.90
4201;DHT22;2114;50.398;8.814;2023-04-03T06:15:32;2.80;99.90
4201;DHT22;2114;50.398;8.814;2023-04-03T06:20:33;2.90;99.90
4201;DHT22;2114;50.398;8.814;2023-04-03T06:25:33;2.90;99.90
4201;DHT22;2114;50.398;8.814;2023-04-03T06:30:34;3.00;99.90
4201;DHT22;2114;50.398;8.814;2023-04-03T06:35:35;3.00;99.90
4201;DHT22;2114;50.398;8.814;2023-04-03T06:40:36;3.00;99.90
4201;DHT22;2114;50.398;8.814;2023-04-03T06:45:37;3.00;99.90
4201;DHT22;2114;50.398;8.814;2023-04-03T06:50:38;3.00;99.90
4201;DHT22;2114;50.398;8.814;2023-04-03T06:55:38;3.10;99.90
4201;DHT22;2114;50.398;8.814;2023-04-03T07:00:39;3.40;99.90
4201;DHT22;2114;50.398;8.814;2023-04-03T07:05:40;3.60;99.90
4201;DHT22;2114;50.398;8.814;2023-04-03T07:10:42;3.80;99.90
4201;DHT22;2114;50.398;8.814;2023-04-03T07:15:43;3.90;99.90
4201;DHT22;2114;50.398;8.814;2023-04-03T07:20:44;4.00;99.90
4201;DHT22;2114;50.398;8.814;2023-04-03T07:25:46;4.20;99.90
4201;DHT22;2114;50.398;8.814;2023-04-03T07:30:49;4.20;99.90
4201;DHT22;2114;50.398;8.814;2023-04-03T07:35:50;4.30;99.90
4201;DHT22;2114;50.398;8.814;2023-04-03T07:40:51;4.40;99.90
4201;DHT22;2114;50.398;8.814;2023-04-03T07:45:53;4.50;99.90
4201;DHT22;2114;50.398;8.814;2023-04-03T07:50:59;4.60;99.90
4201;DHT22;2114;50.398;8.814;2023-04-03T07:56:00;4.70;99.90
4201;DHT22;2114;50.398;8.814;2023-04-03T08:01:03;4.90;99.90
4201;DHT22;2114;50.398;8.814;2023-04-03T08:06:05;4.90;99.90
4201;DHT22;2114;50.398;8.814;2023-04-03T08:11:05;4.90;99.90
4201;DHT22;2114;50.398;8.814;2023-04-03T08:16:16;5.20;99.90
4201;DHT22;2114;50.398;8.814;2023-04-03T08:21:18;5.50;99.90
4201;DHT22;2114;50.398;8.814;2023-04-03T08:26:20;5.70;99.90
4201;DHT22;2114;50.398;8.814;2023-04-03T08:31:21;6.00;99.90
4201;DHT22;2114;50.398;8.814;2023-04-03T08:36:25;6.40;99.90
4201;DHT22;2114;50.398;8.814;2023-04-03T08:41:40;6.70;99.90
4201;DHT22;2114;50.398;8.814;2023-04-03T08:52:11;7.40;99.90
4201;DHT22;2114;50.398;8.814;2023-04-03T08:57:12;7.70;99.90
4201;DHT22;2114;50.398;8.814;2023-04-03T09:02:26;7.80;99.90
4201;DHT22;2114;50.398;8.814;2023-04-03T09:07:39;8.20;99.90
4201;DHT22;2114;50.398;8.814;2023-04-03T09:12:49;8.50;99.90
4201;DHT22;2114;50.398;8.814;2023-04-03T09:18:12;8.70;99.90
4201;DHT22;2114;50.398;8.814;2023-04-03T09:23:30;8.80;99.90
4201;DHT22;2114;50.398;8.814;2023-04-03T09:28:35;9.20;99.90
4201;DHT22;2114;50.398;8.814;2023-04-03T09:33:37;9.50;99.90
4201;DHT22;2114;50.398;8.814;2023-04-03T09:38:39;9.80;99.90
4201;DHT22;2114;50.398;8.814;2023-04-03T09:43:52;10.10;99.90
4201;DHT22;2114;50.398;8.814;2023-04-03T09:49:02;10.40;99.90
4201;DHT22;2114;50.398;8.814;2023-04-03T09:59:32;10.60;99.90
4201;DHT22;2114;50.398;8.814;2023-04-03T10:04:40;10.70;99.90
4201;DHT22;2114;50.398;8.814;2023-04-03T10:09:55;10.90;99.90
4201;DHT22;2114;50.398;8.814;2023-04-03T10:14:59;11.20;99.90
4201;DHT22;2114;50.398;8.814;2023-04-03T10:36:06;12.00;99.90
4201;DHT22;2114;50.398;8.814;2023-04-03T10:46:27;12.40;99.90
4201;DHT22;2114;50.398;8.814;2023-04-03T10:56:50;13.00;99.90
4201;DHT22;2114;50.398;8.814;2023-04-03T11:01:57;12.90;99.90
4201;DHT22;2114;50.398;8.814;2023-04-03T11:07:02;12.70;99.90
4201;DHT22;2114;50.398;8.814;2023-04-03T11:12:17;12.70;99.90
4201;DHT22;2114;50.398;8.814;2023-04-03T11:22:34;12.90;99.90
4201;DHT22;2114;50.398;8.814;2023-04-03T11:27:47;13.10;99.90
4201;DHT22;2114;50.398;8.814;2023-04-03T11:38:26;13.70;99.90
4201;DHT22;2114;50.398;8.814;2023-04-03T11:43:31;13.90;99.90
4201;DHT22;2114;50.398;8.814;2023-04-03T11:53:37;14.40;99.90
4201;DHT22;2114;50.398;8.814;2023-04-03T11:58:37;14.40;97.40
4201;DHT22;2114;50.398;8.814;2023-04-03T12:08:46;13.90;96.70
4201;DHT22;2114;50.398;8.814;2023-04-03T12:34:42;14.30;94.00
4201;DHT22;2114;50.398;8.814;2023-04-03T12:40:10;14.20;93.60
4201;DHT22;2114;50.398;8.814;2023-04-03T12:45:23;14.20;94.10
4201;DHT22;2114;50.398;8.814;2023-04-03T12:50:28;14.10;93.90
4201;DHT22;2114;50.398;8.814;2023-04-03T12:55:30;14.00;94.00
4201;DHT22;2114;50.398;8.814;2023-04-03T13:00:35;14.00;92.50
4201;DHT22;2114;50.398;8.814;2023-04-03T13:05:39;14.00;92.80
4201;DHT22;2114;50.398;8.814;2023-04-03T13:16:08;14.10;93.80
4201;DHT22;2114;50.398;8.814;2023-04-03T13:21:17;14.10;92.10
4201;DHT22;2114;50.398;8.814;2023-04-03T13:26:20;14.00;92.30
4201;DHT22;2114;50.398;8.814;2023-04-03T13:31:26;13.90;91.90
4201;DHT22;2114;50.398;8.814;2023-04-03T13:36:41;13.70;92.00
4201;DHT22;2114;50.398;8.814;2023-04-03T13:41:50;13.60;91.70
4201;DHT22;2114;50.398;8.814;2023-04-03T13:46:53;13.30;91.60
4201;DHT22;2114;50.398;8.814;2023-04-03T13:51:55;13.00;92.00
4201;DHT22;2114;50.398;8.814;2023-04-03T13:56:57;12.80;91.80
4201;DHT22;2114;50.398;8.814;2023-04-03T14:07:02;12.60;91.60
4201;DHT22;2114;50.398;8.814;2023-04-03T14:12:06;12.60;92.20
4201;DHT22;2114;50.398;8.814;2023-04-03T14:17:18;12.70;91.50
4201;DHT22;2114;50.398;8.814;2023-04-03T14:22:25;12.50;91.50
4201;DHT22;2114;50.398;8.814;2023-04-03T14:27:29;12.40;91.70
4201;DHT22;2114;50.398;8.814;2023-04-03T14:32:33;12.20;91.70
4201;DHT22;2114;50.398;8.814;2023-04-03T14:37:34;12.20;92.00
4201;DHT22;2114;50.398;8.814;2023-04-03T14:42:36;12.20;91.60
4201;DHT22;2114;50.398;8.814;2023-04-03T14:47:45;12.20;91.80
4201;DHT22;2114;50.398;8.814;2023-04-03T14:52:48;12.00;91.00
4201;DHT22;2114;50.398;8.814;2023-04-03T14:57:49;11.80;91.10
4201;DHT22;2114;50.398;8.814;2023-04-03T15:02:49;11.60;91.30
4201;DHT22;2114;50.398;8.814;2023-04-03T15:07:53;11.40;91.30
4201;DHT22;2114;50.398;8.814;2023-04-03T15:12:54;11.40;91.50
4201;DHT22;2114;50.398;8.814;2023-04-03T15:17:56;11.50;91.90
4201;DHT22;2114;50.398;8.814;2023-04-03T15:23:00;11.50;91.70
4201;DHT22;2114;50.398;8.814;2023-04-03T15:28:01;11.40;91.90
4201;DHT22;2114;50.398;8.814;2023-04-03T15:33:02;11.30;92.30
4201;DHT22;2114;50.398;8.814;2023-04-03T15:38:02;11.30;91.70
4201;DHT22;2114;50.398;8.814;2023-04-03T15:43:04;11.20;92.20
4201;DHT22;2114;50.398;8.814;2023-04-03T15:48:05;11.00;92.40
4201;DHT22;2114;50.398;8.814;2023-04-03T15:53:06;10.90;92.60
4201;DHT22;2114;50.398;8.814;2023-04-03T15:58:07;10.80;92.60
4201;DHT22;2114;50.398;8.814;2023-04-03T16:03:11;10.80;92.60
4201;DHT22;2114;50.398;8.814;2023-04-03T16:08:12;10.80;92.10
4201;DHT22;2114;50.398;8.814;2023-04-03T16:13:14;10.60;92.30
4201;DHT22;2114;50.398;8.814;2023-04-03T16:18:15;10.60;91.90
4201;DHT22;2114;50.398;8.814;2023-04-03T16:23:16;10.50;91.30
4201;DHT22;2114;50.398;8.814;2023-04-03T16:28:17;10.30;91.40
4201;DHT22;2114;50.398;8.814;2023-04-03T16:33:18;10.30;91.10
4201;DHT22;2114;50.398;8.814;2023-04-03T16:38:21;10.20;91.10
4201;DHT22;2114;50.398;8.814;2023-04-03T16:43:22;10.10;91.30
4201;DHT22;2114;50.398;8.814;2023-04-03T16:48:23;9.90;91.70
4201;DHT22;2114;50.398;8.814;2023-04-03T16:53:25;9.80;92.20
4201;DHT22;2114;50.398;8.814;2023-04-03T16:58:25;9.40;92.50
4201;DHT22;2114;50.398;8.814;2023-04-03T17:03:26;9.40;92.80
4201;DHT22;2114;50.398;8.814;2023-04-03T17:08:28;9.10;92.90
4201;DHT22;2114;50.398;8.814;2023-04-03T17:13:29;8.90;93.80
4201;DHT22;2114;50.398;8.814;2023-04-03T17:18:32;8.70;93.70
4201;DHT22;2114;50.398;8.814;2023-04-03T17:23:34;8.40;94.00
4201;DHT22;2114;50.398;8.814;2023-04-03T17:28:36;8.20;94.00
4201;DHT22;2114;50.398;8.814;2023-04-03T17:33:38;8.00;94.30
4201;DHT22;2114;50.398;8.814;2023-04-03T17:38:39;7.80;94.60
4201;DHT22;2114;50.398;8.814;2023-04-03T17:43:39;7.70;95.20
4201;DHT22;2114;50.398;8.814;2023-04-03T17:48:40;7.50;95.60
4201;DHT22;2114;50.398;8.814;2023-04-03T17:53:41;7.40;96.20
4201;DHT22;2114;50.398;8.814;2023-04-03T17:58:43;7.30;96.80
4201;DHT22;2114;50.398;8.814;2023-04-03T18:03:44;7.20;97.00
4201;DHT22;2114;50.398;8.814;2023-04-03T18:08:54;7.00;97.40
4201;DHT22;2114;50.398;8.814;2023-04-03T18:13:57;6.90;97.60
4201;DHT22;2114;50.398;8.814;2023-04-03T18:18:59;6.80;98.20
4201;DHT22;2114;50.398;8.814;2023-04-03T18:24:00;6.70;98.60
4201;DHT22;2114;50.398;8.814;2023-04-03T18:29:03;6.60;98.50
4201;DHT22;2114;50.398;8.814;2023-04-03T18:34:05;6.40;99.00
4201;DHT22;2114;50.398;8.814;2023-04-03T18:39:05;6.30;99.10
4201;DHT22;2114;50.398;8.814;2023-04-03T18:44:10;6.30;99.20
4201;DHT22;2114;50.398;8.814;2023-04-03T18:49:11;6.20;99.50
4201;DHT22;2114;50.398;8.814;2023-04-03T18:54:13;6.00;99.60
4201;DHT22;2114;50.398;8.814;2023-04-03T18:59:13;5.90;99.90
4201;DHT22;2114;50.398;8.814;2023-04-03T19:04:14;5.90;99.80
4201;DHT22;2114;50.398;8.814;2023-04-03T19:09:15;5.80;99.90
4201;DHT22;2114;50.398;8.814;2023-04-03T19:14:15;5.80;99.90
4201;DHT22;2114;50.398;8.814;2023-04-03T19:19:16;5.70;99.90
4201;DHT22;2114;50.398;8.814;2023-04-03T19:24:17;5.60;99.90
4201;DHT22;2114;50.398;8.814;2023-04-03T19:29:18;5.50;99.90
4201;DHT22;2114;50.398;8.814;2023-04-03T19:34:18;5.40;99.90
4201;DHT22;2114;50.398;8.814;2023-04-03T19:39:19;5.30;99.90
4201;DHT22;2114;50.398;8.814;2023-04-03T19:44:20;5.20;99.90
4201;DHT22;2114;50.398;8.814;2023-04-03T19:49:20;5.20;99.90
4201;DHT22;2114;50.398;8.814;2023-04-03T19:54:22;5.20;99.90
4201;DHT22;2114;50.398;8.814;2023-04-03T19:59:23;5.10;99.90
4201;DHT22;2114;50.398;8.814;2023-04-03T20:04:23;5.00;99.90
4201;DHT22;2114;50.398;8.814;2023-04-03T20:09:24;5.00;99.90
4201;DHT22;2114;50.398;8.814;2023-04-03T20:14:25;4.90;99.90
4201;DHT22;2114;50.398;8.814;2023-04-03T20:19:26;4.80;99.90
4201;DHT22;2114;50.398;8.814;2023-04-03T20:24:27;4.80;99.90
4201;DHT22;2114;50.398;8.814;2023-04-03T20:29:28;4.80;99.90
4201;DHT22;2114;50.398;8.814;2023-04-03T20:34:28;4.80;99.90
4201;DHT22;2114;50.398;8.814;2023-04-03T20:39:29;4.70;99.90
4201;DHT22;2114;50.398;8.814;2023-04-03T20:44:30;4.70;99.90
4201;DHT22;2114;50.398;8.814;2023-04-03T20:49:31;4.60;99.90
4201;DHT22;2114;50.398;8.814;2023-04-03T20:54:31;4.60;99.90
4201;DHT22;2114;50.398;8.814;2023-04-03T20:59:33;4.50;99.90
4201;DHT22;2114;50.398;8.814;2023-04-03T21:04:43;4.50;99.90
4201;DHT22;2114;50.398;8.814;2023-04-03T21:20:52;4.30;99.90
4201;DHT22;2114;50.398;8.814;2023-04-03T21:25:53;4.20;99.90
4201;DHT22;2114;50.398;8.814;2023-04-03T21:30:53;4.10;99.90
4201;DHT22;2114;50.398;8.814;2023-04-03T21:35:54;4.00;99.90
4201;DHT22;2114;50.398;8.814;2023-04-03T21:40:58;3.90;99.90
4201;DHT22;2114;50.398;8.814;2023-04-03T21:45:59;3.90;99.90
4201;DHT22;2114;50.398;8.814;2023-04-03T21:51:01;3.90;99.90
4201;DHT22;2114;50.398;8.814;2023-04-03T21:56:02;3.80;99.90
4201;DHT22;2114;50.398;8.814;2023-04-03T22:01:09;3.80;99.90
4201;DHT22;2114;50.398;8.814;2023-04-03T22:06:14;3.70;99.90
4201;DHT22;2114;50.398;8.814;2023-04-03T22:11:15;3.70;99.90
4201;DHT22;2114;50.398;8.814;2023-04-03T22:16:15;3.60;99.90
4201;DHT22;2114;50.398;8.814;2023-04-03T22:21:16;3.60;99.90
4201;DHT22;2114;50.398;8.814;2023-04-03T22:26:17;3.50;99.90
4201;DHT22;2114;50.398;8.814;2023-04-03T22:31:18;3.40;99.90
4201;DHT22;2114;50.398;8.814;2023-04-03T22:36:19;3.40;99.90
4201;DHT22;2114;50.398;8.814;2023-04-03T22:41:20;3.40;99.90
4201;DHT22;2114;50.398;8.814;2023-04-03T22:46:21;3.30;99.90
4201;DHT22;2114;50.398;8.814;2023-04-03T22:51:22;3.30;99.90
4201;DHT22;2114;50.398;8.814;2023-04-03T22:56:22;3.20;99.90
4201;DHT22;2114;50.398;8.814;2023-04-03T23:01:23;3.20;99.90
4201;DHT22;2114;50.398;8.814;2023-04-03T23:06:24;3.10;99.90
4201;DHT22;2114;50.398;8.814;2023-04-03T23:11:25;3.10;99.90
4201;DHT22;2114;50.398;8.814;2023-04-03T23:16:26;3.00;99.90
4201;DHT22;2114;50.398;8.814;2023-04-03T23:21:27;3.00;99.90
4201;DHT22;2114;50.398;8.814;2023-04-03T23:26:27;3.00;99.90
4201;DHT22;2114;50.398;8.814;2023-04-03T23:31:28;3.00;99.90
4201;DHT22;2114;50.398;8.814;2023-04-03T23:36:28;2.90;99.90
4201;DHT22;2114;50.398;8.814;2023-04-03T23:41:29;2.90;99.90
4201;DHT22;2114;50.398;8.814;2023-04-03T23:46:30;2.90;99.90
4201;DHT22;2114;50.398;8.814;2023-04-03T23:51:30;2.80;99.90
4201;DHT22;2114;50.398;8.814;2023-04-03T23:56:31;2.70;99.90
